sensor_id;sensor_type;location;lat;lon;timestamp;pressure;altitude;pressure_sealevel;temperature;humidity
6974;BME280;3527;52.376;8.990;2023-07-29T00:02:13;100466.94;;;18.38;100.00
6974;BME280;3527;52.376;8.990;2023-07-29T00:04:40;100470.06;;;18.43;100.00
6974;BME280;3527;52.376;8.990;2023-07-29T00:07:07;100471.56;;;18.48;100.00
6974;BME280;3527;52.376;8.990;2023-07-29T00:09:34;100464.25;;;18.50;100.00
6974;BME280;3527;52.376;8.990;2023-07-29T00:12:00;100465.78;;;18.55;100.00
6974;BME280;3527;52.376;8.990;2023-07-29T00:14:28;100472.16;;;18.59;100.00
6974;BME280;3527;52.376;8.990;2023-07-29T00:16:55;100468.50;;;18.62;100.00
6974;BME280;3527;52.376;8.990;2023-07-29T00:19:21;100472.06;;;18.66;100.00
6974;BME280;3527;52.376;8.990;2023-07-29T00:21:50;100468.00;;;18.67;100.00
6974;BME280;3527;52.376;8.990;2023-07-29T00:24:17;100468.38;;;18.69;100.00
6974;BME280;3527;52.376;8.990;2023-07-29T00:26:44;100471.94;;;18.73;100.00
6974;BME280;3527;52.376;8.990;2023-07-29T00:29:10;100461.13;;;18.68;100.00
6974;BME280;3527;52.376;8.990;2023-07-29T00:31:37;100463.88;;;18.72;100.00
6974;BME280;3527;52.376;8.990;2023-07-29T00:34:04;100455.81;;;18.70;100.00
6974;BME280;3527;52.376;8.990;2023-07-29T00:36:31;100467.00;;;18.77;100.00
6974;BME280;3527;52.376;8.990;2023-07-29T00:38:58;100474.88;;;18.86;100.00
6974;BME280;3527;52.376;8.990;2023-07-29T00:41:25;100465.03;;;18.94;100.00
6974;BME280;3527;52.376;8.990;2023-07-29T00:43:52;100472.22;;;18.99;100.00
6974;BME280;3527;52.376;8.990;2023-07-29T00:46:20;100463.72;;;18.99;100.00
6974;BME280;3527;52.376;8.990;2023-07-29T00:48:47;100458.44;;;19.01;100.00
6974;BME280;3527;52.376;8.990;2023-07-29T00:51:14;100456.47;;;18.98;100.00
6974;BME280;3527;52.376;8.990;2023-07-29T00:53:41;100455.25;;;18.99;100.00
6974;BME280;3527;52.376;8.990;2023-07-29T00:56:07;100448.34;;;19.00;100.00
6974;BME280;3527;52.376;8.990;2023-07-29T00:58:34;100450.03;;;18.97;100.00
6974;BME280;3527;52.376;8.990;2023-07-29T01:01:01;100451.25;;;18.96;100.00
6974;BME280;3527;52.376;8.990;2023-07-29T01:03:28;100455.41;;;18.92;100.00
6974;BME280;3527;52.376;8.990;2023-07-29T01:14:05;100439.56;;;18.94;100.00
6974;BME280;3527;52.376;8.990;2023-07-29T01:16:42;100441.53;;;18.97;100.00
6974;BME280;3527;52.376;8.990;2023-07-29T01:22:00;100432.53;;;19.02;100.00
6974;BME280;3527;52.376;8.990;2023-07-29T01:24:29;100438.09;;;19.06;100.00
6974;BME280;3527;52.376;8.990;2023-07-29T01:26:56;100440.56;;;19.04;100.00
6974;BME280;3527;52.376;8.990;2023-07-29T01:29:23;100430.06;;;19.04;100.00
6974;BME280;3527;52.376;8.990;2023-07-29T01:31:52;100437.22;;;19.09;100.00
6974;BME280;3527;52.376;8.990;2023-07-29T01:34:26;100432.00;;;19.07;100.00
6974;BME280;3527;52.376;8.990;2023-07-29T01:36:57;100442.00;;;19.12;100.00
6974;BME280;3527;52.376;8.990;2023-07-29T01:39:29;100431.56;;;19.09;100.00
6974;BME280;3527;52.376;8.990;2023-07-29T01:41:59;100428.28;;;19.10;100.00
6974;BME280;3527;52.376;8.990;2023-07-29T01:44:27;100428.28;;;19.10;100.00
6974;BME280;3527;52.376;8.990;2023-07-29T01:46:55;100426.25;;;19.11;100.00
6974;BME280;3527;52.376;8.990;2023-07-29T01:49:22;100419.00;;;19.10;100.00
6974;BME280;3527;52.376;8.990;2023-07-29T01:51:49;100428.28;;;19.10;100.00
6974;BME280;3527;52.376;8.990;2023-07-29T01:54:16;100414.59;;;19.09;100.00
6974;BME280;3527;52.376;8.990;2023-07-29T01:56:43;100406.53;;;19.07;100.00
6974;BME280;3527;52.376;8.990;2023-07-29T01:59:10;100415.38;;;19.09;100.00
6974;BME280;3527;52.376;8.990;2023-07-29T02:01:37;100413.34;;;19.10;100.00
6974;BME280;3527;52.376;8.990;2023-07-29T02:04:03;100419.34;;;19.12;100.00
6974;BME280;3527;52.376;8.990;2023-07-29T02:06:34;100430.69;;;19.12;100.00
6974;BME280;3527;52.376;8.990;2023-07-29T02:09:01;100414.59;;;19.09;100.00
6974;BME280;3527;52.376;8.990;2023-07-29T02:11:28;100411.75;;;19.09;100.00
6974;BME280;3527;52.376;8.990;2023-07-29T02:13:55;100417.78;;;19.11;100.00
6974;BME280;3527;52.376;8.990;2023-07-29T02:16:22;100413.34;;;19.10;100.00
6974;BME280;3527;52.376;8.990;2023-07-29T02:18:50;100400.44;;;19.09;100.00
6974;BME280;3527;52.376;8.990;2023-07-29T02:21:21;100402.38;;;19.12;100.00
6974;BME280;3527;52.376;8.990;2023-07-29T02:23:48;100396.38;;;19.10;100.00
6974;BME280;3527;52.376;8.990;2023-07-29T02:26:16;100400.66;;;19.18;100.00
6974;BME280;3527;52.376;8.990;2023-07-29T02:28:43;100397.53;;;19.12;100.00
6974;BME280;3527;52.376;8.990;2023-07-29T02:31:20;100400.78;;;19.11;100.00
6974;BME280;3527;52.376;8.990;2023-07-29T02:33:47;100396.00;;;19.08;100.00
6974;BME280;3527;52.376;8.990;2023-07-29T02:36:14;100392.13;;;19.02;100.00
6974;BME280;3527;52.376;8.990;2023-07-29T02:38:41;100395.38;;;19.00;100.00
6974;BME280;3527;52.376;8.990;2023-07-29T02:41:09;100401.41;;;19.02;100.00
6974;BME280;3527;52.376;8.990;2023-07-29T02:43:39;100399.38;;;19.03;100.00
6974;BME280;3527;52.376;8.990;2023-07-29T02:46:08;100407.41;;;19.04;100.00
6974;BME280;3527;52.376;8.990;2023-07-29T02:48:35;100399.72;;;19.05;100.00
6974;BME280;3527;52.376;8.990;2023-07-29T02:51:02;100408.22;;;19.05;100.00
6974;BME280;3527;52.376;8.990;2023-07-29T02:53:31;100406.63;;;19.04;100.00
6974;BME280;3527;52.376;8.990;2023-07-29T02:55:58;100398.84;;;19.08;100.00
6974;BME280;3527;52.376;8.990;2023-07-29T02:58:25;100402.38;;;19.12;100.00
6974;BME280;3527;52.376;8.990;2023-07-29T03:00:53;100395.13;;;19.11;100.00
6974;BME280;3527;52.376;8.990;2023-07-29T03:03:19;100398.84;;;19.08;100.00
6974;BME280;3527;52.376;8.990;2023-07-29T03:05:47;100395.28;;;19.04;100.00
6974;BME280;3527;52.376;8.990;2023-07-29T03:08:14;100384.84;;;19.01;100.00
6974;BME280;3527;52.376;8.990;2023-07-29T03:10:40;100400.16;;;19.03;100.00
6974;BME280;3527;52.376;8.990;2023-07-29T03:13:08;100376.72;;;19.03;100.00
6974;BME280;3527;52.376;8.990;2023-07-29T03:15:35;100367.78;;;19.04;100.00
6974;BME280;3527;52.376;8.990;2023-07-29T03:18:02;100368.25;;;19.03;100.00
6974;BME280;3527;52.376;8.990;2023-07-29T03:20:29;100371.06;;;19.03;100.00
6974;BME280;3527;52.376;8.990;2023-07-29T03:22:56;100372.66;;;19.04;100.00
6974;BME280;3527;52.376;8.990;2023-07-29T03:25:23;100370.63;;;19.04;100.00
6974;BME280;3527;52.376;8.990;2023-07-29T03:27:50;100365.84;;;19.01;100.00
6974;BME280;3527;52.376;8.990;2023-07-29T03:30:21;100358.25;;;18.98;100.00
6974;BME280;3527;52.376;8.990;2023-07-29T03:32:49;100358.41;;;18.91;100.00
6974;BME280;3527;52.376;8.990;2023-07-29T03:35:16;100362.75;;;18.96;100.00
6974;BME280;3527;52.376;8.990;2023-07-29T03:37:43;100363.91;;;18.98;100.00
6974;BME280;3527;52.376;8.990;2023-07-29T03:40:10;100376.72;;;19.03;100.00
6974;BME280;3527;52.376;8.990;2023-07-29T03:42:37;100379.38;;;19.10;100.00
6974;BME280;3527;52.376;8.990;2023-07-29T03:45:04;100373.91;;;19.03;100.00
6974;BME280;3527;52.376;8.990;2023-07-29T03:47:31;100370.91;;;19.10;100.00
6974;BME280;3527;52.376;8.990;2023-07-29T03:49:58;100363.06;;;19.18;100.00
6974;BME280;3527;52.376;8.990;2023-07-29T03:52:25;100367.03;;;19.20;100.00
6974;BME280;3527;52.376;8.990;2023-07-29T03:54:54;100364.22;;;19.20;100.00
6974;BME280;3527;52.376;8.990;2023-07-29T03:57:21;100364.91;;;19.24;100.00
6974;BME280;3527;52.376;8.990;2023-07-29T03:59:48;100364.03;;;19.27;100.00
6974;BME280;3527;52.376;8.990;2023-07-29T04:02:15;100357.66;;;19.23;100.00
6974;BME280;3527;52.376;8.990;2023-07-29T04:04:41;100351.34;;;19.15;100.00
6974;BME280;3527;52.376;8.990;2023-07-29T04:07:10;100356.22;;;19.15;100.00
6974;BME280;3527;52.376;8.990;2023-07-29T04:09:37;100355.38;;;19.18;100.00
6974;BME280;3527;52.376;8.990;2023-07-29T04:12:04;100358.47;;;19.24;100.00
6974;BME280;3527;52.376;8.990;2023-07-29T04:14:31;100355.91;;;19.29;100.00
6974;BME280;3527;52.376;8.990;2023-07-29T04:17:18;100360.66;;;19.32;100.00
6974;BME280;3527;52.376;8.990;2023-07-29T04:20:05;100360.56;;;19.36;100.00
6974;BME280;3527;52.376;8.990;2023-07-29T04:22:52;100353.22;;;19.38;100.00
6974;BME280;3527;52.376;8.990;2023-07-29T04:25:20;100347.31;;;19.33;100.00
6974;BME280;3527;52.376;8.990;2023-07-29T04:28:06;100360.50;;;19.39;100.00
6974;BME280;3527;52.376;8.990;2023-07-29T04:30:53;100346.34;;;19.39;100.00
6974;BME280;3527;52.376;8.990;2023-07-29T04:33:41;100345.72;;;19.48;100.00
6974;BME280;3527;52.376;8.990;2023-07-29T04:36:09;100343.88;;;19.58;100.00
6974;BME280;3527;52.376;8.990;2023-07-29T04:38:55;100349.00;;;19.63;100.00
6974;BME280;3527;52.376;8.990;2023-07-29T04:41:24;100337.16;;;19.68;100.00
6974;BME280;3527;52.376;8.990;2023-07-29T04:44:11;100345.13;;;19.73;100.00
6974;BME280;3527;52.376;8.990;2023-07-29T04:46:38;100339.28;;;19.80;100.00
6974;BME280;3527;52.376;8.990;2023-07-29T04:49:05;100336.69;;;19.86;100.00
6974;BME280;3527;52.376;8.990;2023-07-29T04:51:32;100335.69;;;19.92;100.00
6974;BME280;3527;52.376;8.990;2023-07-29T04:53:59;100335.69;;;19.92;100.00
6974;BME280;3527;52.376;8.990;2023-07-29T04:56:26;100340.13;;;19.93;100.00
6974;BME280;3527;52.376;8.990;2023-07-29T04:58:53;100339.56;;;19.98;100.00
6974;BME280;3527;52.376;8.990;2023-07-29T05:01:20;100335.13;;;19.97;100.00
6974;BME280;3527;52.376;8.990;2023-07-29T05:03:47;100326.47;;;20.04;100.00
6974;BME280;3527;52.376;8.990;2023-07-29T05:06:14;100326.50;;;20.17;100.00
6974;BME280;3527;52.376;8.990;2023-07-29T05:08:41;100327.34;;;20.30;100.00
6974;BME280;3527;52.376;8.990;2023-07-29T05:11:07;100324.25;;;20.25;100.00
6974;BME280;3527;52.376;8.990;2023-07-29T05:13:34;100324.59;;;20.27;100.00
6974;BME280;3527;52.376;8.990;2023-07-29T05:16:01;100316.81;;;20.31;100.00
6974;BME280;3527;52.376;8.990;2023-07-29T05:18:28;100313.63;;;20.29;100.00
6974;BME280;3527;52.376;8.990;2023-07-29T05:20:54;100322.47;;;20.31;100.00
6974;BME280;3527;52.376;8.990;2023-07-29T05:23:21;100320.88;;;20.30;100.00
6974;BME280;3527;52.376;8.990;2023-07-29T05:25:48;100324.88;;;20.32;100.00
6974;BME280;3527;52.376;8.990;2023-07-29T05:28:15;100311.38;;;20.36;100.00
6974;BME280;3527;52.376;8.990;2023-07-29T05:30:43;100312.50;;;20.39;100.00
6974;BME280;3527;52.376;8.990;2023-07-29T05:33:10;100315.03;;;20.50;100.00
6974;BME280;3527;52.376;8.990;2023-07-29T05:35:38;100315.19;;;20.59;100.00
6974;BME280;3527;52.376;8.990;2023-07-29T05:38:04;100317.81;;;20.66;100.00
6974;BME280;3527;52.376;8.990;2023-07-29T05:40:33;100318.50;;;20.70;100.00
6974;BME280;3527;52.376;8.990;2023-07-29T05:43:00;100324.50;;;20.72;100.00
6974;BME280;3527;52.376;8.990;2023-07-29T05:45:26;100327.91;;;20.67;100.00
6974;BME280;3527;52.376;8.990;2023-07-29T05:47:53;100319.47;;;20.51;100.00
6974;BME280;3527;52.376;8.990;2023-07-29T05:50:21;100325.53;;;20.65;100.00
6974;BME280;3527;52.376;8.990;2023-07-29T05:52:47;100327.06;;;20.54;100.00
6974;BME280;3527;52.376;8.990;2023-07-29T05:55:14;100328.59;;;20.58;100.00
6974;BME280;3527;52.376;8.990;2023-07-29T05:57:41;100319.75;;;20.69;100.00
6974;BME280;3527;52.376;8.990;2023-07-29T06:00:10;100325.53;;;20.65;100.00
6974;BME280;3527;52.376;8.990;2023-07-29T06:02:37;100321.78;;;20.56;100.00
6974;BME280;3527;52.376;8.990;2023-07-29T06:05:04;100314.50;;;20.55;100.00
6974;BME280;3527;52.376;8.990;2023-07-29T06:07:31;100319.59;;;20.47;100.00
6974;BME280;3527;52.376;8.990;2023-07-29T06:10:00;100323.25;;;20.60;100.00
6974;BME280;3527;52.376;8.990;2023-07-29T06:12:26;100320.53;;;20.70;100.00
6974;BME280;3527;52.376;8.990;2023-07-29T06:14:53;100317.34;;;20.67;100.00
6974;BME280;3527;52.376;8.990;2023-07-29T06:17:20;100309.97;;;20.70;100.00
6974;BME280;3527;52.376;8.990;2023-07-29T06:19:47;100312.63;;;20.90;100.00
6974;BME280;3527;52.376;8.990;2023-07-29T06:22:13;100313.97;;;20.98;100.00
6974;BME280;3527;52.376;8.990;2023-07-29T06:24:40;100304.88;;;20.78;100.00
6974;BME280;3527;52.376;8.990;2023-07-29T06:27:07;100300.69;;;20.82;100.00
6974;BME280;3527;52.376;8.990;2023-07-29T06:29:34;100298.28;;;20.81;100.00
6974;BME280;3527;52.376;8.990;2023-07-29T06:32:01;100316.03;;;21.10;100.00
6974;BME280;3527;52.376;8.990;2023-07-29T06:34:27;100323.50;;;21.04;100.00
6974;BME280;3527;52.376;8.990;2023-07-29T06:36:54;100318.28;;;20.90;100.00
6974;BME280;3527;52.376;8.990;2023-07-29T06:39:21;100320.31;;;20.77;100.00
6974;BME280;3527;52.376;8.990;2023-07-29T06:41:47;100323.25;;;20.73;100.00
6974;BME280;3527;52.376;8.990;2023-07-29T06:44:14;100334.06;;;20.91;100.00
6974;BME280;3527;52.376;8.990;2023-07-29T06:46:41;100329.09;;;20.82;100.00
6974;BME280;3527;52.376;8.990;2023-07-29T06:49:08;100331.00;;;20.98;100.00
6974;BME280;3527;52.376;8.990;2023-07-29T06:51:35;100326.13;;;20.98;100.00
6974;BME280;3527;52.376;8.990;2023-07-29T06:54:02;100332.94;;;21.01;100.00
6974;BME280;3527;52.376;8.990;2023-07-29T06:56:29;100340.00;;;21.09;100.00
6974;BME280;3527;52.376;8.990;2023-07-29T06:58:56;100346.09;;;20.95;100.00
6974;BME280;3527;52.376;8.990;2023-07-29T07:01:23;100333.47;;;20.71;100.00
6974;BME280;3527;52.376;8.990;2023-07-29T07:03:49;100334.16;;;20.75;100.00
6974;BME280;3527;52.376;8.990;2023-07-29T07:06:16;100337.69;;;20.91;100.00
6974;BME280;3527;52.376;8.990;2023-07-29T07:08:43;100332.94;;;21.01;100.00
6974;BME280;3527;52.376;8.990;2023-07-29T07:11:10;100332.81;;;21.17;100.00
6974;BME280;3527;52.376;8.990;2023-07-29T07:13:37;100331.81;;;21.24;100.00
6974;BME280;3527;52.376;8.990;2023-07-29T07:16:04;100317.06;;;21.29;100.00
6974;BME280;3527;52.376;8.990;2023-07-29T07:18:31;100319.09;;;21.41;100.00
6974;BME280;3527;52.376;8.990;2023-07-29T07:20:57;100313.16;;;21.48;100.00
6974;BME280;3527;52.376;8.990;2023-07-29T07:23:24;100316.22;;;21.54;100.00
6974;BME280;3527;52.376;8.990;2023-07-29T07:25:52;100322.34;;;21.52;100.00
6974;BME280;3527;52.376;8.990;2023-07-29T07:28:19;100342.66;;;21.76;100.00
6974;BME280;3527;52.376;8.990;2023-07-29T07:30:45;100340.94;;;21.79;100.00
6974;BME280;3527;52.376;8.990;2023-07-29T07:33:12;100335.97;;;21.70;100.00
6974;BME280;3527;52.376;8.990;2023-07-29T07:35:39;100340.34;;;21.37;100.00
6974;BME280;3527;52.376;8.990;2023-07-29T07:38:08;100340.56;;;21.42;100.00
6974;BME280;3527;52.376;8.990;2023-07-29T07:40:36;100352.38;;;21.41;100.00
6974;BME280;3527;52.376;8.990;2023-07-29T07:43:03;100346.03;;;21.37;100.00
6974;BME280;3527;52.376;8.990;2023-07-29T07:45:32;100341.47;;;21.26;100.00
6974;BME280;3527;52.376;8.990;2023-07-29T07:47:59;100352.59;;;21.34;100.00
6974;BME280;3527;52.376;8.990;2023-07-29T07:50:29;100345.66;;;21.22;100.00
6974;BME280;3527;52.376;8.990;2023-07-29T07:52:56;100350.09;;;21.48;100.00
6974;BME280;3527;52.376;8.990;2023-07-29T07:55:23;100340.28;;;21.62;100.00
6974;BME280;3527;52.376;8.990;2023-07-29T07:57:50;100341.41;;;21.77;100.00
6974;BME280;3527;52.376;8.990;2023-07-29T08:00:17;100336.91;;;21.54;100.00
6974;BME280;3527;52.376;8.990;2023-07-29T08:02:46;100333.72;;;21.65;100.00
6974;BME280;3527;52.376;8.990;2023-07-29T08:05:13;100342.84;;;21.95;100.00
6974;BME280;3527;52.376;8.990;2023-07-29T08:07:40;100341.41;;;22.12;100.00
6974;BME280;3527;52.376;8.990;2023-07-29T08:10:07;100342.00;;;22.07;100.00
6974;BME280;3527;52.376;8.990;2023-07-29T08:12:34;100345.72;;;22.38;100.00
6974;BME280;3527;52.376;8.990;2023-07-29T08:15:01;100350.66;;;22.69;100.00
6974;BME280;3527;52.376;8.990;2023-07-29T08:17:28;100335.69;;;22.46;100.00
6974;BME280;3527;52.376;8.990;2023-07-29T08:19:55;100338.41;;;23.03;100.00
6974;BME280;3527;52.376;8.990;2023-07-29T08:22:22;100329.50;;;23.41;100.00
6974;BME280;3527;52.376;8.990;2023-07-29T08:24:48;100337.66;;;23.21;100.00
6974;BME280;3527;52.376;8.990;2023-07-29T08:27:15;100355.09;;;22.70;100.00
6974;BME280;3527;52.376;8.990;2023-07-29T08:29:42;100357.81;;;22.08;100.00
6974;BME280;3527;52.376;8.990;2023-07-29T08:32:09;100340.38;;;20.57;100.00
6974;BME280;3527;52.376;8.990;2023-07-29T08:34:35;100327.25;;;20.34;100.00
6974;BME280;3527;52.376;8.990;2023-07-29T08:37:02;100326.06;;;20.48;100.00
6974;BME280;3527;52.376;8.990;2023-07-29T08:39:29;100339.63;;;20.82;100.00
6974;BME280;3527;52.376;8.990;2023-07-29T08:42:03;100344.41;;;21.10;100.00
6974;BME280;3527;52.376;8.990;2023-07-29T08:44:42;100355.41;;;21.72;100.00
6974;BME280;3527;52.376;8.990;2023-07-29T08:47:10;100340.09;;;21.91;100.00
6974;BME280;3527;52.376;8.990;2023-07-29T08:49:38;100335.88;;;21.96;100.00
6974;BME280;3527;52.376;8.990;2023-07-29T08:52:06;100337.72;;;22.24;100.00
6974;BME280;3527;52.376;8.990;2023-07-29T08:54:37;100332.03;;;22.24;100.00
6974;BME280;3527;52.376;8.990;2023-07-29T08:57:05;100336.88;;;22.36;100.00
6974;BME280;3527;52.376;8.990;2023-07-29T08:59:33;100328.09;;;22.22;100.00
6974;BME280;3527;52.376;8.990;2023-07-29T09:01:59;100331.97;;;22.37;100.00
6974;BME280;3527;52.376;8.990;2023-07-29T09:04:26;100341.91;;;22.54;100.00
6974;BME280;3527;52.376;8.990;2023-07-29T09:06:56;100324.31;;;22.25;100.00
6974;BME280;3527;52.376;8.990;2023-07-29T09:09:25;100328.53;;;22.20;100.00
6974;BME280;3527;52.376;8.990;2023-07-29T09:11:52;100335.31;;;22.44;100.00
6974;BME280;3527;52.376;8.990;2023-07-29T09:14:19;100327.38;;;21.96;100.00
6974;BME280;3527;52.376;8.990;2023-07-29T09:16:46;100340.69;;;22.42;100.00
6974;BME280;3527;52.376;8.990;2023-07-29T09:19:13;100347.06;;;23.30;100.00
6974;BME280;3527;52.376;8.990;2023-07-29T09:21:40;100349.88;;;23.70;100.00
6974;BME280;3527;52.376;8.990;2023-07-29T09:24:08;100327.34;;;23.05;100.00
6974;BME280;3527;52.376;8.990;2023-07-29T09:26:35;100319.78;;;22.58;100.00
6974;BME280;3527;52.376;8.990;2023-07-29T09:29:03;100321.94;;;22.23;100.00
6974;BME280;3527;52.376;8.990;2023-07-29T09:31:30;100325.94;;;22.57;100.00
6974;BME280;3527;52.376;8.990;2023-07-29T09:33:58;100324.47;;;22.74;100.00
6974;BME280;3527;52.376;8.990;2023-07-29T09:36:27;100318.38;;;22.63;100.00
6974;BME280;3527;52.376;8.990;2023-07-29T09:38:55;100323.16;;;22.97;100.00
6974;BME280;3527;52.376;8.990;2023-07-29T09:41:23;100328.19;;;23.24;100.00
6974;BME280;3527;52.376;8.990;2023-07-29T09:44:02;100321.22;;;23.25;100.00
6974;BME280;3527;52.376;8.990;2023-07-29T09:46:35;100337.28;;;23.50;100.00
6974;BME280;3527;52.376;8.990;2023-07-29T09:49:07;100321.63;;;23.54;100.00
6974;BME280;3527;52.376;8.990;2023-07-29T09:51:38;100321.09;;;23.87;100.00
6974;BME280;3527;52.376;8.990;2023-07-29T09:54:06;100311.91;;;24.28;100.00
6974;BME280;3527;52.376;8.990;2023-07-29T09:56:33;100318.84;;;24.00;100.00
6974;BME280;3527;52.376;8.990;2023-07-29T09:59:01;100317.28;;;24.35;100.00
6974;BME280;3527;52.376;8.990;2023-07-29T10:01:31;100333.97;;;24.88;100.00
6974;BME280;3527;52.376;8.990;2023-07-29T10:03:59;100327.06;;;25.22;100.00
6974;BME280;3527;52.376;8.990;2023-07-29T10:06:28;100299.69;;;25.31;100.00
6974;BME280;3527;52.376;8.990;2023-07-29T10:08:57;100302.38;;;24.92;100.00
6974;BME280;3527;52.376;8.990;2023-07-29T10:11:24;100322.53;;;24.98;100.00
6974;BME280;3527;52.376;8.990;2023-07-29T10:13:52;100303.19;;;25.02;99.10
6974;BME280;3527;52.376;8.990;2023-07-29T10:16:36;100272.53;;;24.51;95.40
6974;BME280;3527;52.376;8.990;2023-07-29T10:19:04;100287.09;;;24.71;94.75
6974;BME280;3527;52.376;8.990;2023-07-29T10:21:32;100280.06;;;24.81;94.05
6974;BME280;3527;52.376;8.990;2023-07-29T10:24:01;100276.06;;;24.88;91.42
6974;BME280;3527;52.376;8.990;2023-07-29T10:26:31;100265.06;;;25.05;88.30
6974;BME280;3527;52.376;8.990;2023-07-29T10:29:04;100277.34;;;25.20;88.76
6974;BME280;3527;52.376;8.990;2023-07-29T10:31:32;100296.13;;;25.69;90.72
6974;BME280;3527;52.376;8.990;2023-07-29T10:34:00;100252.13;;;25.66;84.01
6974;BME280;3527;52.376;8.990;2023-07-29T10:36:28;100258.44;;;25.94;83.27
6974;BME280;3527;52.376;8.990;2023-07-29T10:38:55;100257.44;;;26.36;80.85
6974;BME280;3527;52.376;8.990;2023-07-29T10:41:22;100238.94;;;25.69;80.00
6974;BME280;3527;52.376;8.990;2023-07-29T10:43:49;100255.66;;;25.61;81.22
6974;BME280;3527;52.376;8.990;2023-07-29T10:46:23;100242.81;;;25.09;81.59
6974;BME280;3527;52.376;8.990;2023-07-29T10:51:28;100269.16;;;25.13;82.12
6974;BME280;3527;52.376;8.990;2023-07-29T10:54:22;100242.88;;;25.00;80.51
6974;BME280;3527;52.376;8.990;2023-07-29T10:56:56;100271.53;;;24.63;83.82
6974;BME280;3527;52.376;8.990;2023-07-29T10:59:32;100272.50;;;24.69;84.37
6974;BME280;3527;52.376;8.990;2023-07-29T11:02:18;100256.41;;;24.81;82.71
6974;BME280;3527;52.376;8.990;2023-07-29T11:04:46;100235.75;;;24.53;81.67
6974;BME280;3527;52.376;8.990;2023-07-29T11:12:40;100252.28;;;24.30;83.04
6974;BME280;3527;52.376;8.990;2023-07-29T11:18:18;100245.97;;;23.81;82.88
6974;BME280;3527;52.376;8.990;2023-07-29T11:20:27;100259.94;;;23.88;83.11
6974;BME280;3527;52.376;8.990;2023-07-29T11:22:55;100264.84;;;23.69;84.00
6974;BME280;3527;52.376;8.990;2023-07-29T11:25:24;100263.88;;;23.90;82.56
6974;BME280;3527;52.376;8.990;2023-07-29T11:27:54;100273.84;;;24.04;82.56
6974;BME280;3527;52.376;8.990;2023-07-29T11:30:21;100254.06;;;24.00;81.46
6974;BME280;3527;52.376;8.990;2023-07-29T11:32:56;100254.81;;;24.10;80.40
6974;BME280;3527;52.376;8.990;2023-07-29T11:35:23;100259.28;;;24.39;79.72
6974;BME280;3527;52.376;8.990;2023-07-29T11:37:52;100293.59;;;25.14;81.56
6974;BME280;3527;52.376;8.990;2023-07-29T11:40:22;100289.19;;;25.37;79.84
6974;BME280;3527;52.376;8.990;2023-07-29T11:42:51;100299.81;;;26.23;78.51
6974;BME280;3527;52.376;8.990;2023-07-29T11:45:19;100272.63;;;26.42;76.64
6974;BME280;3527;52.376;8.990;2023-07-29T11:47:47;100259.03;;;26.37;73.80
6974;BME280;3527;52.376;8.990;2023-07-29T11:50:14;100256.25;;;26.57;72.35
6974;BME280;3527;52.376;8.990;2023-07-29T11:52:43;100261.00;;;26.60;73.14
6974;BME280;3527;52.376;8.990;2023-07-29T11:55:12;100250.72;;;26.39;72.25
6974;BME280;3527;52.376;8.990;2023-07-29T11:57:41;100237.44;;;26.27;70.63
6974;BME280;3527;52.376;8.990;2023-07-29T12:00:10;100207.19;;;25.67;70.16
6974;BME280;3527;52.376;8.990;2023-07-29T12:02:41;100237.91;;;25.57;71.33
6974;BME280;3527;52.376;8.990;2023-07-29T12:05:09;100247.63;;;25.74;72.13
6974;BME280;3527;52.376;8.990;2023-07-29T12:07:42;100256.97;;;25.99;71.76
6974;BME280;3527;52.376;8.990;2023-07-29T12:10:09;100268.88;;;26.36;72.47
6974;BME280;3527;52.376;8.990;2023-07-29T12:12:50;100276.34;;;26.92;72.26
6974;BME280;3527;52.376;8.990;2023-07-29T12:15:24;100256.16;;;27.16;70.65
6974;BME280;3527;52.376;8.990;2023-07-29T12:17:56;100225.19;;;27.00;68.60
6974;BME280;3527;52.376;8.990;2023-07-29T12:20:25;100221.22;;;26.83;68.09
6974;BME280;3527;52.376;8.990;2023-07-29T12:22:53;100231.56;;;26.60;69.07
6974;BME280;3527;52.376;8.990;2023-07-29T12:25:21;100200.34;;;26.62;67.17
6974;BME280;3527;52.376;8.990;2023-07-29T12:27:47;100233.72;;;26.50;69.23
6974;BME280;3527;52.376;8.990;2023-07-29T12:30:14;100221.78;;;26.07;68.90
6974;BME280;3527;52.376;8.990;2023-07-29T12:32:46;100243.78;;;26.16;71.05
6974;BME280;3527;52.376;8.990;2023-07-29T12:35:14;100231.78;;;26.41;70.38
6974;BME280;3527;52.376;8.990;2023-07-29T12:37:40;100247.44;;;27.25;69.48
6974;BME280;3527;52.376;8.990;2023-07-29T12:40:26;100227.09;;;27.64;67.69
6974;BME280;3527;52.376;8.990;2023-07-29T12:42:54;100209.31;;;27.39;66.24
6974;BME280;3527;52.376;8.990;2023-07-29T12:45:21;100206.44;;;27.80;64.90
6974;BME280;3527;52.376;8.990;2023-07-29T12:47:50;100201.16;;;27.73;65.14
6974;BME280;3527;52.376;8.990;2023-07-29T12:50:17;100210.97;;;26.76;66.80
6974;BME280;3527;52.376;8.990;2023-07-29T12:52:45;100219.13;;;27.33;65.81
6974;BME280;3527;52.376;8.990;2023-07-29T12:55:15;100201.69;;;27.57;64.61
6974;BME280;3527;52.376;8.990;2023-07-29T12:57:52;100208.09;;;27.26;65.39
6974;BME280;3527;52.376;8.990;2023-07-29T13:00:20;100208.97;;;26.97;65.65
6974;BME280;3527;52.376;8.990;2023-07-29T13:02:48;100167.50;;;26.13;64.02
6974;BME280;3527;52.376;8.990;2023-07-29T13:05:16;100180.72;;;26.10;64.69
6974;BME280;3527;52.376;8.990;2023-07-29T13:07:43;100188.50;;;26.54;64.35
6974;BME280;3527;52.376;8.990;2023-07-29T13:10:11;100178.19;;;26.77;63.68
6974;BME280;3527;52.376;8.990;2023-07-29T13:12:38;100217.28;;;26.80;66.55
6974;BME280;3527;52.376;8.990;2023-07-29T13:15:06;100204.50;;;26.16;66.09
6974;BME280;3527;52.376;8.990;2023-07-29T13:17:33;100194.75;;;26.08;65.86
6974;BME280;3527;52.376;8.990;2023-07-29T13:20:01;100202.03;;;26.09;66.42
6974;BME280;3527;52.376;8.990;2023-07-29T13:22:27;100223.00;;;26.95;66.67
6974;BME280;3527;52.376;8.990;2023-07-29T13:24:54;100211.97;;;26.88;65.38
6974;BME280;3527;52.376;8.990;2023-07-29T13:27:22;100203.94;;;26.42;65.67
6974;BME280;3527;52.376;8.990;2023-07-29T13:29:50;100218.50;;;26.14;68.31
6974;BME280;3527;52.376;8.990;2023-07-29T13:32:18;100223.44;;;26.29;67.52